createdAt,value
2023-01-13T00:01:50.448Z,7.20
2023-01-13T00:04:20.685Z,6.57
2023-01-13T00:06:49.468Z,6.83
2023-01-13T00:09:18.104Z,6.60
2023-01-13T00:11:47.825Z,6.97
2023-01-13T00:14:18.564Z,6.83
2023-01-13T00:16:47.218Z,6.57
2023-01-13T00:19:15.920Z,5.97
2023-01-13T00:21:45.990Z,6.70
2023-01-13T00:24:21.520Z,6.73
2023-01-13T00:26:53.005Z,7.17
2023-01-13T00:29:21.760Z,6.43
2023-01-13T00:31:51.170Z,6.90
2023-01-13T00:34:21.456Z,6.17
2023-01-13T00:36:50.079Z,7.00
2023-01-13T00:39:18.713Z,6.80
2023-01-13T00:42:05.413Z,7.00
2023-01-13T00:44:34.008Z,7.20
2023-01-13T00:47:02.584Z,7.00
2023-01-13T00:49:33.733Z,7.27
2023-01-13T00:52:03.874Z,8.53
2023-01-13T00:54:33.985Z,7.87
2023-01-13T00:57:02.640Z,7.97
2023-01-13T00:59:34.189Z,9.13
2023-01-13T01:02:03.140Z,8.83
2023-01-13T01:04:34.838Z,9.27
2023-01-13T01:07:06.765Z,9.00
2023-01-13T01:09:38.937Z,8.87
2023-01-13T01:12:07.765Z,9.17
2023-01-13T01:14:36.911Z,8.33
2023-01-13T01:17:05.760Z,8.23
2023-01-13T01:19:36.145Z,9.10
2023-01-13T01:22:05.112Z,7.87
2023-01-13T01:24:35.668Z,7.60
2023-01-13T01:27:07.313Z,8.10
2023-01-13T01:29:36.238Z,8.47
2023-01-13T01:32:07.227Z,7.73
2023-01-13T01:34:38.970Z,7.07
2023-01-13T01:37:09.701Z,7.53
2023-01-13T01:39:39.208Z,7.53
2023-01-13T01:42:25.559Z,8.13
2023-01-13T01:45:04.829Z,8.23
2023-01-13T01:47:35.299Z,8.03
2023-01-13T01:50:05.588Z,7.20
2023-01-13T01:58:17.726Z,6.80
2023-01-13T02:00:46.443Z,8.10
2023-01-13T02:03:16.549Z,7.80
2023-01-13T02:05:45.184Z,7.50
2023-01-13T02:08:15.192Z,7.33
2023-01-13T02:10:46.234Z,7.33
2023-01-13T02:13:15.746Z,7.20
2023-01-13T02:16:05.694Z,6.93
2023-01-13T02:18:45.788Z,6.27
2023-01-13T02:21:38.009Z,6.47
2023-01-13T02:24:46.876Z,5.70
2023-01-13T02:27:30.411Z,6.50
2023-01-13T02:30:19.870Z,6.60
2023-01-13T02:33:03.099Z,5.80
2023-01-13T02:35:37.476Z,6.10
2023-01-13T02:38:08.242Z,6.47
2023-01-13T02:40:39.809Z,7.00
2023-01-13T02:43:35.882Z,6.97
2023-01-13T02:46:07.519Z,7.27
2023-01-13T02:48:37.876Z,6.40
2023-01-13T02:51:09.688Z,6.47
2023-01-13T02:53:53.650Z,7.33
2023-01-13T02:56:24.361Z,6.50
2023-01-13T02:58:54.744Z,6.83
2023-01-13T03:01:23.960Z,7.40
2023-01-13T03:03:52.622Z,7.03
2023-01-13T03:06:30.400Z,7.03
2023-01-13T03:09:22.937Z,7.23
2023-01-13T03:12:06.766Z,6.77
2023-01-13T03:14:41.019Z,7.93
2023-01-13T03:17:27.648Z,8.13
2023-01-13T03:20:07.084Z,7.17
2023-01-13T03:22:38.782Z,7.27
2023-01-13T03:25:13.426Z,7.80
2023-01-13T03:28:03.375Z,7.57
2023-01-13T03:30:44.915Z,8.13
2023-01-13T03:33:19.300Z,7.53
2023-01-13T03:35:52.347Z,6.83
2023-01-13T03:38:32.386Z,7.57
2023-01-13T03:41:06.492Z,7.93
2023-01-13T03:43:56.322Z,7.40
2023-01-13T03:46:43.665Z,7.03
2023-01-13T03:49:15.378Z,7.17
2023-01-13T03:51:47.807Z,6.07
2023-01-13T03:54:18.919Z,6.60
2023-01-13T03:56:50.623Z,6.90
2023-01-13T03:59:22.323Z,6.57
2023-01-13T04:01:57.061Z,6.40
2023-01-13T04:04:31.793Z,7.43
2023-01-13T04:07:09.293Z,6.73
2023-01-13T04:09:46.769Z,6.77
2023-01-13T04:12:51.070Z,7.00
2023-01-13T04:15:25.240Z,6.97
2023-01-13T04:17:55.900Z,6.27
2023-01-13T04:20:24.597Z,6.23
2023-01-13T04:22:53.281Z,7.33
2023-01-13T04:25:22.045Z,6.53
2023-01-13T04:27:50.690Z,6.60
2023-01-13T04:30:19.426Z,6.40
2023-01-13T04:32:47.983Z,6.10
2023-01-13T04:35:19.778Z,5.97
2023-01-13T04:37:48.672Z,6.20
2023-01-13T04:40:17.533Z,6.70
2023-01-13T04:42:46.677Z,6.87
2023-01-13T04:45:15.866Z,6.90
2023-01-13T04:47:46.059Z,6.83
2023-01-13T04:50:15.092Z,6.40
2023-01-13T04:52:43.731Z,6.43
2023-01-13T04:55:16.829Z,6.93
2023-01-13T04:57:50.992Z,7.60
2023-01-13T05:00:21.987Z,7.17
2023-01-13T05:03:12.482Z,7.03
2023-01-13T05:06:11.329Z,8.20
2023-01-13T05:18:23.561Z,7.60
2023-01-13T05:20:52.403Z,6.97
2023-01-13T05:23:22.557Z,7.70
2023-01-13T05:25:51.431Z,7.77
2023-01-13T05:28:20.051Z,8.00
2023-01-13T05:30:52.686Z,8.40
2023-01-13T05:33:21.680Z,10.13
2023-01-13T05:35:53.430Z,8.93
2023-01-13T05:38:22.623Z,9.07
2023-01-13T05:41:09.386Z,8.87
2023-01-13T05:43:38.143Z,9.17
2023-01-13T05:46:14.399Z,8.30
2023-01-13T05:48:48.627Z,9.43
2023-01-13T05:51:27.896Z,9.30
2023-01-13T06:04:21.471Z,9.57
2023-01-13T06:06:53.658Z,9.67
2023-01-13T06:09:23.980Z,10.40
2023-01-13T06:11:53.089Z,10.43
2023-01-13T06:14:23.362Z,10.20
2023-01-13T06:16:58.410Z,10.17
2023-01-13T06:19:32.820Z,9.97
2023-01-13T06:22:12.153Z,10.40
2023-01-13T06:24:50.198Z,10.07
2023-01-13T06:27:31.715Z,9.90
2023-01-13T06:34:28.838Z,10.50
2023-01-13T06:37:05.516Z,10.03
2023-01-13T06:39:50.695Z,12.67
2023-01-13T06:42:42.395Z,18.53
2023-01-13T06:45:15.582Z,10.67
2023-01-13T06:58:18.065Z,12.43
2023-01-13T07:01:47.677Z,12.37
2023-01-13T07:33:38.184Z,9.70
2023-01-13T08:03:08.620Z,7.50
2023-01-13T08:05:40.773Z,7.60
2023-01-13T08:27:36.839Z,8.93
2023-01-13T08:33:08.157Z,10.33
2023-01-13T08:39:07.480Z,7.97
2023-01-13T08:42:01.991Z,9.20
2023-01-13T08:44:47.912Z,9.13
2023-01-13T08:50:04.611Z,9.77
2023-01-13T08:52:33.760Z,9.57
2023-01-13T08:55:03.469Z,9.33
2023-01-13T08:57:32.427Z,9.63
2023-01-13T09:00:01.467Z,11.90
2023-01-13T09:02:34.415Z,9.33
2023-01-13T09:05:04.362Z,9.07
2023-01-13T09:07:33.315Z,9.57
2023-01-13T09:10:22.258Z,8.27
2023-01-13T09:13:10.423Z,8.80
2023-01-13T09:15:42.787Z,12.10
2023-01-13T09:18:17.945Z,8.27
2023-01-13T09:20:56.755Z,7.70
2023-01-13T09:23:40.630Z,7.43
2023-01-13T09:26:07.172Z,7.70
2023-01-13T09:28:42.507Z,8.77
2023-01-13T09:31:50.245Z,7.43
2023-01-13T09:34:47.642Z,7.13
2023-01-13T09:37:17.007Z,7.50
2023-01-13T09:47:00.677Z,6.73
2023-01-13T09:50:03.087Z,6.00
2023-01-13T09:52:39.585Z,6.63
2023-01-13T09:55:23.794Z,5.57
2023-01-13T09:57:52.761Z,5.60
2023-01-13T10:01:04.040Z,6.83
2023-01-13T10:03:41.845Z,5.90
2023-01-13T10:09:29.792Z,4.40
2023-01-13T10:12:18.333Z,6.27
2023-01-13T10:14:55.965Z,4.50
2023-01-13T10:17:39.663Z,4.50
2023-01-13T10:20:24.737Z,4.50
2023-01-13T10:23:24.890Z,4.27
2023-01-13T10:26:18.068Z,4.37
2023-01-13T10:28:54.779Z,4.40
2023-01-13T10:31:25.579Z,4.03
2023-01-13T10:34:05.720Z,4.07
2023-01-13T10:36:37.546Z,4.20
2023-01-13T10:39:17.315Z,4.30
2023-01-13T10:41:46.697Z,4.23
2023-01-13T10:44:22.401Z,4.07
2023-01-13T10:46:56.766Z,4.43
2023-01-13T10:49:32.949Z,4.37
2023-01-13T10:52:03.273Z,3.77
2023-01-13T10:54:38.639Z,3.50
2023-01-13T10:57:24.829Z,3.70
2023-01-13T10:59:55.513Z,5.00
2023-01-13T11:02:43.063Z,4.87
2023-01-13T11:05:17.638Z,4.80
2023-01-13T11:07:52.702Z,4.43
2023-01-13T11:10:34.522Z,4.37
2023-01-13T11:13:38.607Z,4.20
2023-01-13T11:16:15.773Z,4.07
2023-01-13T11:19:04.657Z,4.30
2023-01-13T11:21:56.831Z,4.20
2023-01-13T11:24:55.882Z,4.80
2023-01-13T11:27:58.494Z,4.10
2023-01-13T11:30:49.947Z,4.60
2023-01-13T11:33:45.840Z,4.27
2023-01-13T11:36:20.951Z,9.03
2023-01-13T11:39:01.640Z,4.50
2023-01-13T11:41:48.134Z,4.70
2023-01-13T11:45:01.670Z,4.80
2023-01-13T11:50:54.530Z,6.10
2023-01-13T11:53:37.969Z,10.07
2023-01-13T11:56:54.583Z,6.00
2023-01-13T12:16:03.093Z,6.30
2023-01-13T12:19:08.115Z,6.00
2023-01-13T12:55:40.520Z,5.50
2023-01-13T13:01:45.731Z,5.10
2023-01-13T13:37:39.173Z,6.50
2023-01-13T13:40:28.331Z,6.50
2023-01-13T14:19:09.824Z,5.90
2023-01-13T14:21:39.325Z,5.70
2023-01-13T14:24:19.770Z,6.60
2023-01-13T14:33:39.591Z,6.87
2023-01-13T14:36:27.814Z,5.60
2023-01-13T14:39:11.664Z,6.20
2023-01-13T14:41:47.186Z,5.73
2023-01-13T14:44:30.996Z,5.27
2023-01-13T14:47:05.540Z,5.87
2023-01-13T14:50:04.640Z,6.60
2023-01-13T14:52:36.707Z,7.97
2023-01-13T14:55:13.912Z,7.10
2023-01-13T14:57:47.755Z,8.33
2023-01-13T15:00:19.449Z,9.13
2023-01-13T15:03:03.159Z,8.93
2023-01-13T15:05:37.125Z,10.07
2023-01-13T15:08:09.947Z,10.40
2023-01-13T15:10:51.112Z,10.93
2023-01-13T15:13:34.775Z,9.83
2023-01-13T15:16:10.983Z,9.03
2023-01-13T15:28:40.326Z,9.43
2023-01-13T15:31:13.789Z,7.93
2023-01-13T15:53:48.082Z,10.40
2023-01-13T15:56:46.709Z,10.03
2023-01-13T15:59:24.578Z,10.13
2023-01-13T16:02:03.657Z,9.93
2023-01-13T16:31:21.244Z,10.47
2023-01-13T16:50:24.535Z,20.90
2023-01-13T16:56:01.302Z,22.87
2023-01-13T17:19:15.792Z,14.13
2023-01-13T17:41:16.563Z,13.27
2023-01-13T17:43:45.226Z,16.73
2023-01-13T17:46:16.653Z,55.47
2023-01-13T17:48:45.656Z,27.57
2023-01-13T17:51:21.146Z,13.90
2023-01-13T17:53:49.714Z,15.43
2023-01-13T17:56:18.990Z,22.30
2023-01-13T17:58:47.711Z,15.90
2023-01-13T18:01:29.113Z,15.03
2023-01-13T18:04:01.590Z,26.63
2023-01-13T18:06:30.760Z,17.97
2023-01-13T18:09:05.310Z,14.23
2023-01-13T18:11:34.013Z,14.70
2023-01-13T18:14:02.649Z,14.67
2023-01-13T18:16:33.800Z,14.77
2023-01-13T18:19:20.535Z,14.33
2023-01-13T18:22:08.245Z,39.90
2023-01-13T18:24:54.686Z,13.43
2023-01-13T18:27:27.235Z,14.67
2023-01-13T18:29:58.664Z,14.67
2023-01-13T18:32:32.789Z,12.73
2023-01-13T18:35:35.975Z,14.67
2023-01-13T18:40:54.984Z,16.90
2023-01-13T18:43:28.013Z,14.43
2023-01-13T18:45:56.905Z,15.60
2023-01-13T18:48:25.998Z,14.63
2023-01-13T18:51:00.298Z,15.63
2023-01-13T18:53:37.104Z,15.93
2023-01-13T18:56:27.054Z,17.00
2023-01-13T18:59:02.281Z,16.50
2023-01-13T19:01:47.731Z,18.03
2023-01-13T19:04:20.836Z,16.00
2023-01-13T19:06:53.166Z,18.27
2023-01-13T19:15:50.105Z,14.87
2023-01-13T19:18:20.778Z,47.57
2023-01-13T19:20:52.297Z,14.43
2023-01-13T19:23:21.314Z,53.60
2023-01-13T19:25:49.798Z,15.97
2023-01-13T19:28:18.555Z,12.93
2023-01-13T19:30:48.930Z,12.13
2023-01-13T19:39:39.932Z,14.80
2023-01-13T19:45:18.520Z,14.93
2023-01-13T19:47:50.910Z,15.80
2023-01-13T19:50:19.865Z,13.83
2023-01-13T19:52:48.556Z,12.27
2023-01-13T20:14:37.132Z,16.27
2023-01-13T20:17:35.447Z,15.50
2023-01-13T20:20:11.206Z,15.23
2023-01-13T20:26:03.049Z,14.83
2023-01-13T21:12:20.155Z,17.33
2023-01-13T21:24:23.309Z,23.30
2023-01-13T21:26:55.941Z,24.30
2023-01-13T21:29:30.916Z,24.13
2023-01-13T21:32:15.961Z,21.50
2023-01-13T21:34:45.059Z,19.43
2023-01-13T21:37:15.714Z,19.90
2023-01-13T21:39:45.047Z,20.47
2023-01-13T21:42:58.086Z,20.80
2023-01-13T21:48:44.179Z,77.50
2023-01-13T21:51:16.301Z,21.50
2023-01-13T21:53:45.393Z,19.53
2023-01-13T21:56:17.092Z,17.10
2023-01-13T21:58:48.999Z,17.27
2023-01-13T22:01:24.422Z,16.80
2023-01-13T22:04:13.079Z,16.90
2023-01-13T22:06:42.276Z,17.00
2023-01-13T22:09:11.220Z,16.87
2023-01-13T22:11:51.678Z,15.57
2023-01-13T22:14:44.998Z,16.83
2023-01-13T22:17:17.825Z,18.03
2023-01-13T22:20:00.100Z,17.13
2023-01-13T22:22:54.973Z,17.37
2023-01-13T22:25:30.158Z,20.43
2023-01-13T22:28:02.126Z,34.67
2023-01-13T22:30:35.064Z,82.97
2023-01-13T22:33:03.984Z,21.70
2023-01-13T22:35:32.992Z,18.27
2023-01-13T22:38:09.633Z,62.97
2023-01-13T22:40:41.211Z,63.97
2023-01-13T22:43:10.084Z,28.63
2023-01-13T22:45:39.136Z,16.90
2023-01-13T22:48:08.335Z,17.57
2023-01-13T22:50:37.340Z,16.43
2023-01-13T22:53:06.477Z,17.60
2023-01-13T22:55:48.588Z,17.80
2023-01-13T22:58:25.008Z,17.20
2023-01-13T23:01:39.012Z,28.33
2023-01-13T23:07:03.889Z,25.30
2023-01-13T23:09:36.828Z,18.17
2023-01-13T23:12:06.152Z,30.10
2023-01-13T23:14:35.113Z,22.70
2023-01-13T23:17:04.609Z,23.63
2023-01-13T23:25:40.892Z,30.67
2023-01-13T23:28:11.011Z,29.17
2023-01-13T23:30:41.383Z,25.17
2023-01-13T23:33:14.402Z,26.27
2023-01-13T23:35:43.120Z,26.80
2023-01-13T23:38:11.732Z,24.53
2023-01-13T23:40:40.468Z,26.70
2023-01-13T23:43:09.207Z,23.70
2023-01-13T23:45:37.967Z,23.87
2023-01-13T23:48:07.421Z,23.83
2023-01-13T23:50:36.229Z,24.00
2023-01-13T23:53:05.045Z,22.87
2023-01-13T23:55:34.927Z,22.53
2023-01-13T23:58:06.467Z,25.60
